sensor_id;sensor_type;location;lat;lon;timestamp;P1;durP1;ratioP1;P2;durP2;ratioP2
39738;SDS011;25422;48.286;8.484;2023-08-12T00:00:53;5.03;;;4.18;;
39738;SDS011;25422;48.286;8.484;2023-08-12T00:03:19;5.93;;;4.43;;
39738;SDS011;25422;48.286;8.484;2023-08-12T00:05:45;7.18;;;4.63;;
39738;SDS011;25422;48.286;8.484;2023-08-12T00:08:10;6.25;;;4.15;;
39738;SDS011;25422;48.286;8.484;2023-08-12T00:10:36;8.90;;;5.60;;
39738;SDS011;25422;48.286;8.484;2023-08-12T00:13:01;8.23;;;5.20;;
39738;SDS011;25422;48.286;8.484;2023-08-12T00:15:26;8.70;;;4.97;;
39738;SDS011;25422;48.286;8.484;2023-08-12T00:17:52;7.15;;;5.30;;
39738;SDS011;25422;48.286;8.484;2023-08-12T00:20:17;6.47;;;5.00;;
39738;SDS011;25422;48.286;8.484;2023-08-12T00:22:43;5.68;;;4.57;;
39738;SDS011;25422;48.286;8.484;2023-08-12T00:25:09;9.63;;;4.78;;
39738;SDS011;25422;48.286;8.484;2023-08-12T00:27:35;6.20;;;4.97;;
39738;SDS011;25422;48.286;8.484;2023-08-12T00:30:00;6.55;;;4.40;;
39738;SDS011;25422;48.286;8.484;2023-08-12T00:32:26;4.85;;;4.18;;
39738;SDS011;25422;48.286;8.484;2023-08-12T00:34:51;7.95;;;4.72;;
39738;SDS011;25422;48.286;8.484;2023-08-12T00:37:16;6.07;;;4.85;;
39738;SDS011;25422;48.286;8.484;2023-08-12T00:39:42;5.45;;;4.30;;
39738;SDS011;25422;48.286;8.484;2023-08-12T00:42:07;9.27;;;4.72;;
39738;SDS011;25422;48.286;8.484;2023-08-12T00:44:33;8.27;;;4.93;;
39738;SDS011;25422;48.286;8.484;2023-08-12T00:46:59;5.60;;;4.22;;
39738;SDS011;25422;48.286;8.484;2023-08-12T00:49:24;5.25;;;4.53;;
39738;SDS011;25422;48.286;8.484;2023-08-12T00:51:52;5.80;;;4.50;;
39738;SDS011;25422;48.286;8.484;2023-08-12T00:54:17;7.78;;;4.43;;
39738;SDS011;25422;48.286;8.484;2023-08-12T00:56:45;7.35;;;4.15;;
39738;SDS011;25422;48.286;8.484;2023-08-12T00:59:11;6.15;;;4.50;;
39738;SDS011;25422;48.286;8.484;2023-08-12T01:01:40;7.53;;;4.75;;
39738;SDS011;25422;48.286;8.484;2023-08-12T01:04:09;4.97;;;4.47;;
39738;SDS011;25422;48.286;8.484;2023-08-12T01:06:34;6.03;;;4.60;;
39738;SDS011;25422;48.286;8.484;2023-08-12T01:09:00;8.50;;;4.38;;
39738;SDS011;25422;48.286;8.484;2023-08-12T01:11:38;4.93;;;4.28;;
39738;SDS011;25422;48.286;8.484;2023-08-12T01:14:25;4.63;;;4.20;;
39738;SDS011;25422;48.286;8.484;2023-08-12T01:16:59;5.40;;;4.50;;
39738;SDS011;25422;48.286;8.484;2023-08-12T01:19:38;6.75;;;4.13;;
39738;SDS011;25422;48.286;8.484;2023-08-12T01:22:06;5.45;;;4.43;;
39738;SDS011;25422;48.286;8.484;2023-08-12T01:24:34;4.55;;;4.15;;
39738;SDS011;25422;48.286;8.484;2023-08-12T01:27:03;6.78;;;4.45;;
39738;SDS011;25422;48.286;8.484;2023-08-12T01:29:31;5.47;;;4.38;;
39738;SDS011;25422;48.286;8.484;2023-08-12T01:32:00;8.10;;;4.35;;
39738;SDS011;25422;48.286;8.484;2023-08-12T01:34:39;8.82;;;4.38;;
39738;SDS011;25422;48.286;8.484;2023-08-12T01:37:10;4.82;;;4.25;;
39738;SDS011;25422;48.286;8.484;2023-08-12T01:39:38;6.28;;;4.75;;
39738;SDS011;25422;48.286;8.484;2023-08-12T01:42:05;4.93;;;3.97;;
39738;SDS011;25422;48.286;8.484;2023-08-12T01:44:31;6.85;;;5.07;;
39738;SDS011;25422;48.286;8.484;2023-08-12T01:46:56;10.48;;;4.78;;
39738;SDS011;25422;48.286;8.484;2023-08-12T01:49:22;5.85;;;4.45;;
39738;SDS011;25422;48.286;8.484;2023-08-12T01:51:49;6.35;;;4.85;;
39738;SDS011;25422;48.286;8.484;2023-08-12T01:54:14;6.80;;;4.50;;
39738;SDS011;25422;48.286;8.484;2023-08-12T01:56:40;6.53;;;4.45;;
39738;SDS011;25422;48.286;8.484;2023-08-12T01:59:05;5.03;;;4.53;;
39738;SDS011;25422;48.286;8.484;2023-08-12T02:01:30;5.50;;;4.68;;
39738;SDS011;25422;48.286;8.484;2023-08-12T02:03:56;5.60;;;4.47;;
39738;SDS011;25422;48.286;8.484;2023-08-12T02:06:21;6.00;;;4.70;;
39738;SDS011;25422;48.286;8.484;2023-08-12T02:08:47;5.35;;;4.45;;
39738;SDS011;25422;48.286;8.484;2023-08-12T02:11:12;7.72;;;4.65;;
39738;SDS011;25422;48.286;8.484;2023-08-12T02:13:38;5.65;;;4.82;;
39738;SDS011;25422;48.286;8.484;2023-08-12T02:16:03;9.07;;;4.90;;
39738;SDS011;25422;48.286;8.484;2023-08-12T02:18:28;8.35;;;4.85;;
39738;SDS011;25422;48.286;8.484;2023-08-12T02:20:54;7.03;;;4.93;;
39738;SDS011;25422;48.286;8.484;2023-08-12T02:23:19;9.85;;;5.00;;
39738;SDS011;25422;48.286;8.484;2023-08-12T02:25:44;8.85;;;5.00;;
39738;SDS011;25422;48.286;8.484;2023-08-12T02:28:10;7.07;;;5.03;;
39738;SDS011;25422;48.286;8.484;2023-08-12T02:30:35;5.22;;;4.72;;
39738;SDS011;25422;48.286;8.484;2023-08-12T02:33:00;6.43;;;4.65;;
39738;SDS011;25422;48.286;8.484;2023-08-12T02:35:26;6.25;;;4.60;;
39738;SDS011;25422;48.286;8.484;2023-08-12T02:37:51;5.45;;;4.70;;
39738;SDS011;25422;48.286;8.484;2023-08-12T02:40:17;6.15;;;4.78;;
39738;SDS011;25422;48.286;8.484;2023-08-12T02:42:42;11.77;;;5.05;;
39738;SDS011;25422;48.286;8.484;2023-08-12T02:45:08;5.30;;;4.80;;
39738;SDS011;25422;48.286;8.484;2023-08-12T02:47:33;6.55;;;4.43;;
39738;SDS011;25422;48.286;8.484;2023-08-12T02:49:59;5.50;;;4.85;;
39738;SDS011;25422;48.286;8.484;2023-08-12T02:52:24;8.43;;;4.68;;
39738;SDS011;25422;48.286;8.484;2023-08-12T02:54:49;6.43;;;4.63;;
39738;SDS011;25422;48.286;8.484;2023-08-12T02:57:15;8.93;;;4.53;;
39738;SDS011;25422;48.286;8.484;2023-08-12T02:59:40;7.10;;;4.50;;
39738;SDS011;25422;48.286;8.484;2023-08-12T03:02:06;5.15;;;4.65;;
39738;SDS011;25422;48.286;8.484;2023-08-12T03:04:31;4.82;;;4.38;;
39738;SDS011;25422;48.286;8.484;2023-08-12T03:06:56;7.35;;;4.75;;
39738;SDS011;25422;48.286;8.484;2023-08-12T03:09:22;6.47;;;4.80;;
39738;SDS011;25422;48.286;8.484;2023-08-12T03:11:48;8.27;;;5.00;;
39738;SDS011;25422;48.286;8.484;2023-08-12T03:14:14;9.32;;;4.68;;
39738;SDS011;25422;48.286;8.484;2023-08-12T03:16:39;5.65;;;4.55;;
39738;SDS011;25422;48.286;8.484;2023-08-12T03:19:06;8.52;;;4.88;;
39738;SDS011;25422;48.286;8.484;2023-08-12T03:21:32;6.55;;;4.68;;
39738;SDS011;25422;48.286;8.484;2023-08-12T03:23:59;4.95;;;4.45;;
39738;SDS011;25422;48.286;8.484;2023-08-12T03:26:25;8.02;;;4.63;;
39738;SDS011;25422;48.286;8.484;2023-08-12T03:28:53;6.10;;;5.07;;
39738;SDS011;25422;48.286;8.484;2023-08-12T03:31:18;6.97;;;4.45;;
39738;SDS011;25422;48.286;8.484;2023-08-12T03:33:44;10.95;;;4.30;;
39738;SDS011;25422;48.286;8.484;2023-08-12T03:36:12;7.18;;;4.40;;
39738;SDS011;25422;48.286;8.484;2023-08-12T03:38:37;7.93;;;5.28;;
39738;SDS011;25422;48.286;8.484;2023-08-12T03:41:04;6.60;;;4.80;;
39738;SDS011;25422;48.286;8.484;2023-08-12T03:43:31;6.57;;;5.03;;
39738;SDS011;25422;48.286;8.484;2023-08-12T03:45:58;7.43;;;5.30;;
39738;SDS011;25422;48.286;8.484;2023-08-12T03:48:25;7.72;;;4.80;;
39738;SDS011;25422;48.286;8.484;2023-08-12T03:50:50;5.22;;;4.63;;
39738;SDS011;25422;48.286;8.484;2023-08-12T03:53:16;5.82;;;4.93;;
39738;SDS011;25422;48.286;8.484;2023-08-12T03:55:42;6.18;;;5.05;;
39738;SDS011;25422;48.286;8.484;2023-08-12T03:58:08;8.75;;;5.65;;
39738;SDS011;25422;48.286;8.484;2023-08-12T04:00:34;7.03;;;5.03;;
39738;SDS011;25422;48.286;8.484;2023-08-12T04:03:01;7.55;;;5.30;;
39738;SDS011;25422;48.286;8.484;2023-08-12T04:05:27;10.10;;;5.05;;
39738;SDS011;25422;48.286;8.484;2023-08-12T04:07:52;6.53;;;4.97;;
39738;SDS011;25422;48.286;8.484;2023-08-12T04:10:17;6.55;;;4.68;;
39738;SDS011;25422;48.286;8.484;2023-08-12T04:12:43;5.88;;;4.88;;
39738;SDS011;25422;48.286;8.484;2023-08-12T04:15:09;8.13;;;5.03;;
39738;SDS011;25422;48.286;8.484;2023-08-12T04:17:34;8.27;;;4.78;;
39738;SDS011;25422;48.286;8.484;2023-08-12T04:20:01;7.75;;;5.10;;
39738;SDS011;25422;48.286;8.484;2023-08-12T04:22:31;5.25;;;4.55;;
39738;SDS011;25422;48.286;8.484;2023-08-12T04:24:56;5.70;;;5.00;;
39738;SDS011;25422;48.286;8.484;2023-08-12T04:27:21;8.18;;;5.15;;
39738;SDS011;25422;48.286;8.484;2023-08-12T04:29:47;6.35;;;5.18;;
39738;SDS011;25422;48.286;8.484;2023-08-12T04:32:13;6.75;;;5.28;;
39738;SDS011;25422;48.286;8.484;2023-08-12T04:34:39;5.78;;;5.13;;
39738;SDS011;25422;48.286;8.484;2023-08-12T04:37:05;5.90;;;5.25;;
39738;SDS011;25422;48.286;8.484;2023-08-12T04:39:30;6.88;;;5.38;;
39738;SDS011;25422;48.286;8.484;2023-08-12T04:41:57;6.55;;;5.32;;
39738;SDS011;25422;48.286;8.484;2023-08-12T04:44:23;6.93;;;5.57;;
39738;SDS011;25422;48.286;8.484;2023-08-12T04:46:48;7.80;;;5.80;;
39738;SDS011;25422;48.286;8.484;2023-08-12T04:49:16;10.35;;;6.18;;
39738;SDS011;25422;48.286;8.484;2023-08-12T04:51:42;6.97;;;5.55;;
39738;SDS011;25422;48.286;8.484;2023-08-12T04:54:08;8.77;;;5.32;;
39738;SDS011;25422;48.286;8.484;2023-08-12T04:56:33;5.60;;;5.10;;
39738;SDS011;25422;48.286;8.484;2023-08-12T04:58:59;6.88;;;5.22;;
39738;SDS011;25422;48.286;8.484;2023-08-12T05:01:25;6.47;;;5.40;;
39738;SDS011;25422;48.286;8.484;2023-08-12T05:03:51;5.95;;;4.97;;
39738;SDS011;25422;48.286;8.484;2023-08-12T05:06:16;7.15;;;5.55;;
39738;SDS011;25422;48.286;8.484;2023-08-12T05:08:44;7.15;;;5.60;;
39738;SDS011;25422;48.286;8.484;2023-08-12T05:11:10;9.40;;;5.53;;
39738;SDS011;25422;48.286;8.484;2023-08-12T05:13:35;9.10;;;5.28;;
39738;SDS011;25422;48.286;8.484;2023-08-12T05:16:01;8.80;;;5.57;;
39738;SDS011;25422;48.286;8.484;2023-08-12T05:18:26;9.30;;;5.40;;
39738;SDS011;25422;48.286;8.484;2023-08-12T05:20:53;7.72;;;5.15;;
39738;SDS011;25422;48.286;8.484;2023-08-12T05:23:22;6.40;;;5.72;;
39738;SDS011;25422;48.286;8.484;2023-08-12T05:25:47;7.93;;;6.18;;
39738;SDS011;25422;48.286;8.484;2023-08-12T05:28:13;7.88;;;5.63;;
39738;SDS011;25422;48.286;8.484;2023-08-12T05:30:38;6.03;;;5.40;;
39738;SDS011;25422;48.286;8.484;2023-08-12T05:33:04;6.72;;;5.60;;
39738;SDS011;25422;48.286;8.484;2023-08-12T05:35:33;9.82;;;5.93;;
39738;SDS011;25422;48.286;8.484;2023-08-12T05:37:59;6.65;;;5.82;;
39738;SDS011;25422;48.286;8.484;2023-08-12T05:40:24;6.63;;;5.43;;
39738;SDS011;25422;48.286;8.484;2023-08-12T05:42:50;7.78;;;5.85;;
39738;SDS011;25422;48.286;8.484;2023-08-12T05:45:15;8.50;;;5.07;;
39738;SDS011;25422;48.286;8.484;2023-08-12T05:47:41;8.88;;;5.72;;
39738;SDS011;25422;48.286;8.484;2023-08-12T05:50:06;7.28;;;5.18;;
39738;SDS011;25422;48.286;8.484;2023-08-12T05:52:32;7.07;;;5.22;;
39738;SDS011;25422;48.286;8.484;2023-08-12T05:54:57;7.97;;;5.13;;
39738;SDS011;25422;48.286;8.484;2023-08-12T05:57:23;8.80;;;4.88;;
39738;SDS011;25422;48.286;8.484;2023-08-12T05:59:48;8.27;;;5.00;;
39738;SDS011;25422;48.286;8.484;2023-08-12T06:02:14;4.90;;;4.38;;
39738;SDS011;25422;48.286;8.484;2023-08-12T06:04:39;5.30;;;4.80;;
39738;SDS011;25422;48.286;8.484;2023-08-12T06:07:04;7.57;;;5.05;;
39738;SDS011;25422;48.286;8.484;2023-08-12T06:09:30;6.25;;;4.50;;
39738;SDS011;25422;48.286;8.484;2023-08-12T06:11:55;6.18;;;4.45;;
39738;SDS011;25422;48.286;8.484;2023-08-12T06:14:21;6.20;;;4.47;;
39738;SDS011;25422;48.286;8.484;2023-08-12T06:16:46;6.78;;;5.28;;
39738;SDS011;25422;48.286;8.484;2023-08-12T06:19:11;5.25;;;4.75;;
39738;SDS011;25422;48.286;8.484;2023-08-12T06:21:37;6.22;;;5.20;;
39738;SDS011;25422;48.286;8.484;2023-08-12T06:24:02;7.82;;;5.20;;
39738;SDS011;25422;48.286;8.484;2023-08-12T06:26:28;8.63;;;6.00;;
39738;SDS011;25422;48.286;8.484;2023-08-12T06:28:53;6.72;;;6.05;;
39738;SDS011;25422;48.286;8.484;2023-08-12T06:31:19;8.60;;;6.30;;
39738;SDS011;25422;48.286;8.484;2023-08-12T06:33:44;7.22;;;6.25;;
39738;SDS011;25422;48.286;8.484;2023-08-12T06:36:10;8.38;;;5.63;;
39738;SDS011;25422;48.286;8.484;2023-08-12T06:38:36;7.38;;;5.20;;
39738;SDS011;25422;48.286;8.484;2023-08-12T06:41:01;10.90;;;6.90;;
39738;SDS011;25422;48.286;8.484;2023-08-12T06:43:26;11.52;;;6.63;;
39738;SDS011;25422;48.286;8.484;2023-08-12T06:45:52;9.68;;;6.85;;
39738;SDS011;25422;48.286;8.484;2023-08-12T06:48:17;6.38;;;5.28;;
39738;SDS011;25422;48.286;8.484;2023-08-12T06:50:43;6.55;;;4.50;;
39738;SDS011;25422;48.286;8.484;2023-08-12T06:53:08;8.68;;;4.13;;
39738;SDS011;25422;48.286;8.484;2023-08-12T06:55:34;5.80;;;3.38;;
39738;SDS011;25422;48.286;8.484;2023-08-12T06:57:59;4.88;;;3.17;;
39738;SDS011;25422;48.286;8.484;2023-08-12T07:00:25;3.92;;;3.38;;
39738;SDS011;25422;48.286;8.484;2023-08-12T07:02:51;7.85;;;3.30;;
39738;SDS011;25422;48.286;8.484;2023-08-12T07:05:16;3.95;;;3.10;;
39738;SDS011;25422;48.286;8.484;2023-08-12T07:07:41;4.22;;;2.60;;
39738;SDS011;25422;48.286;8.484;2023-08-12T07:10:07;3.45;;;2.30;;
39738;SDS011;25422;48.286;8.484;2023-08-12T07:12:33;5.93;;;2.47;;
39738;SDS011;25422;48.286;8.484;2023-08-12T07:14:58;3.65;;;2.13;;
39738;SDS011;25422;48.286;8.484;2023-08-12T07:17:25;3.22;;;2.50;;
39738;SDS011;25422;48.286;8.484;2023-08-12T07:19:50;2.60;;;2.40;;
39738;SDS011;25422;48.286;8.484;2023-08-12T07:22:16;3.03;;;2.70;;
39738;SDS011;25422;48.286;8.484;2023-08-12T07:24:44;4.38;;;2.50;;
39738;SDS011;25422;48.286;8.484;2023-08-12T07:27:10;5.88;;;2.95;;
39738;SDS011;25422;48.286;8.484;2023-08-12T07:29:35;6.22;;;2.72;;
39738;SDS011;25422;48.286;8.484;2023-08-12T07:32:00;5.05;;;2.40;;
39738;SDS011;25422;48.286;8.484;2023-08-12T07:34:26;3.92;;;2.63;;
39738;SDS011;25422;48.286;8.484;2023-08-12T07:36:51;5.00;;;2.70;;
39738;SDS011;25422;48.286;8.484;2023-08-12T07:39:17;2.90;;;2.58;;
39738;SDS011;25422;48.286;8.484;2023-08-12T07:41:42;3.45;;;2.60;;
39738;SDS011;25422;48.286;8.484;2023-08-12T07:44:07;4.45;;;2.65;;
39738;SDS011;25422;48.286;8.484;2023-08-12T07:46:33;2.97;;;2.67;;
39738;SDS011;25422;48.286;8.484;2023-08-12T07:48:58;8.38;;;2.95;;
39738;SDS011;25422;48.286;8.484;2023-08-12T07:51:24;4.25;;;2.88;;
39738;SDS011;25422;48.286;8.484;2023-08-12T07:53:49;6.72;;;3.47;;
39738;SDS011;25422;48.286;8.484;2023-08-12T07:56:14;32.88;;;4.47;;
39738;SDS011;25422;48.286;8.484;2023-08-12T07:58:40;4.43;;;3.03;;
39738;SDS011;25422;48.286;8.484;2023-08-12T08:01:05;4.85;;;3.00;;
39738;SDS011;25422;48.286;8.484;2023-08-12T08:03:31;4.65;;;3.05;;
39738;SDS011;25422;48.286;8.484;2023-08-12T08:05:56;5.22;;;3.08;;
39738;SDS011;25422;48.286;8.484;2023-08-12T08:08:22;4.57;;;3.10;;
39738;SDS011;25422;48.286;8.484;2023-08-12T08:10:47;5.70;;;3.03;;
39738;SDS011;25422;48.286;8.484;2023-08-12T08:13:13;3.85;;;2.85;;
39738;SDS011;25422;48.286;8.484;2023-08-12T08:15:38;3.47;;;3.10;;
39738;SDS011;25422;48.286;8.484;2023-08-12T08:18:04;3.22;;;2.80;;
39738;SDS011;25422;48.286;8.484;2023-08-12T08:20:30;3.20;;;2.63;;
39738;SDS011;25422;48.286;8.484;2023-08-12T08:22:55;5.47;;;3.13;;
39738;SDS011;25422;48.286;8.484;2023-08-12T08:25:21;4.68;;;3.00;;
39738;SDS011;25422;48.286;8.484;2023-08-12T08:27:47;5.90;;;3.00;;
39738;SDS011;25422;48.286;8.484;2023-08-12T08:30:12;5.43;;;3.10;;
39738;SDS011;25422;48.286;8.484;2023-08-12T08:32:38;3.15;;;2.70;;
39738;SDS011;25422;48.286;8.484;2023-08-12T08:35:03;5.95;;;3.38;;
39738;SDS011;25422;48.286;8.484;2023-08-12T08:37:29;5.30;;;3.00;;
39738;SDS011;25422;48.286;8.484;2023-08-12T08:39:55;6.82;;;2.60;;
39738;SDS011;25422;48.286;8.484;2023-08-12T08:42:20;4.93;;;2.70;;
39738;SDS011;25422;48.286;8.484;2023-08-12T08:44:46;4.65;;;2.83;;
39738;SDS011;25422;48.286;8.484;2023-08-12T08:47:19;3.88;;;2.58;;
39738;SDS011;25422;48.286;8.484;2023-08-12T08:49:47;3.65;;;2.80;;
39738;SDS011;25422;48.286;8.484;2023-08-12T08:52:13;3.88;;;3.20;;
39738;SDS011;25422;48.286;8.484;2023-08-12T08:54:39;4.22;;;3.28;;
39738;SDS011;25422;48.286;8.484;2023-08-12T08:57:04;4.32;;;3.47;;
39738;SDS011;25422;48.286;8.484;2023-08-12T08:59:30;5.22;;;3.25;;
39738;SDS011;25422;48.286;8.484;2023-08-12T09:01:55;7.95;;;3.08;;
39738;SDS011;25422;48.286;8.484;2023-08-12T09:04:22;7.00;;;2.85;;
39738;SDS011;25422;48.286;8.484;2023-08-12T09:06:49;6.60;;;3.38;;
39738;SDS011;25422;48.286;8.484;2023-08-12T09:09:16;7.40;;;3.55;;
39738;SDS011;25422;48.286;8.484;2023-08-12T09:11:45;3.33;;;3.00;;
39738;SDS011;25422;48.286;8.484;2023-08-12T09:14:10;6.47;;;2.97;;
39738;SDS011;25422;48.286;8.484;2023-08-12T09:16:36;3.40;;;3.10;;
39738;SDS011;25422;48.286;8.484;2023-08-12T09:19:02;4.88;;;3.47;;
39738;SDS011;25422;48.286;8.484;2023-08-12T09:21:28;5.53;;;3.08;;
39738;SDS011;25422;48.286;8.484;2023-08-12T09:23:53;4.22;;;3.20;;
39738;SDS011;25422;48.286;8.484;2023-08-12T09:26:20;7.50;;;3.40;;
39738;SDS011;25422;48.286;8.484;2023-08-12T09:28:46;4.97;;;3.05;;
39738;SDS011;25422;48.286;8.484;2023-08-12T09:31:25;3.63;;;2.78;;
39738;SDS011;25422;48.286;8.484;2023-08-12T09:33:53;6.53;;;2.80;;
39738;SDS011;25422;48.286;8.484;2023-08-12T09:36:22;8.05;;;3.10;;
39738;SDS011;25422;48.286;8.484;2023-08-12T09:38:48;13.00;;;4.60;;
39738;SDS011;25422;48.286;8.484;2023-08-12T09:41:13;7.22;;;3.83;;
39738;SDS011;25422;48.286;8.484;2023-08-12T09:43:42;6.78;;;3.40;;
39738;SDS011;25422;48.286;8.484;2023-08-12T09:46:11;4.85;;;3.40;;
39738;SDS011;25422;48.286;8.484;2023-08-12T09:48:40;5.15;;;3.30;;
39738;SDS011;25422;48.286;8.484;2023-08-12T09:51:05;5.53;;;2.85;;
39738;SDS011;25422;48.286;8.484;2023-08-12T09:53:32;5.20;;;2.88;;
39738;SDS011;25422;48.286;8.484;2023-08-12T09:55:59;4.47;;;2.28;;
39738;SDS011;25422;48.286;8.484;2023-08-12T09:58:32;6.70;;;2.80;;
39738;SDS011;25422;48.286;8.484;2023-08-12T10:00:58;4.68;;;2.50;;
39738;SDS011;25422;48.286;8.484;2023-08-12T10:03:24;5.15;;;2.30;;
39738;SDS011;25422;48.286;8.484;2023-08-12T10:05:50;2.53;;;1.80;;
39738;SDS011;25422;48.286;8.484;2023-08-12T10:08:17;4.45;;;2.70;;
39738;SDS011;25422;48.286;8.484;2023-08-12T10:10:43;4.80;;;1.75;;
39738;SDS011;25422;48.286;8.484;2023-08-12T10:13:09;3.85;;;1.90;;
39738;SDS011;25422;48.286;8.484;2023-08-12T10:15:36;6.07;;;2.20;;
39738;SDS011;25422;48.286;8.484;2023-08-12T10:18:03;2.28;;;1.80;;
39738;SDS011;25422;48.286;8.484;2023-08-12T10:20:30;2.15;;;1.90;;
39738;SDS011;25422;48.286;8.484;2023-08-12T10:22:57;3.30;;;1.80;;
39738;SDS011;25422;48.286;8.484;2023-08-12T10:25:24;4.50;;;2.05;;
39738;SDS011;25422;48.286;8.484;2023-08-12T10:27:56;3.15;;;2.08;;
39738;SDS011;25422;48.286;8.484;2023-08-12T10:30:21;6.55;;;2.17;;
39738;SDS011;25422;48.286;8.484;2023-08-12T10:32:46;5.97;;;2.13;;
39738;SDS011;25422;48.286;8.484;2023-08-12T10:35:12;2.53;;;1.77;;
39738;SDS011;25422;48.286;8.484;2023-08-12T10:37:38;2.97;;;2.00;;
39738;SDS011;25422;48.286;8.484;2023-08-12T10:40:05;4.03;;;2.25;;
39738;SDS011;25422;48.286;8.484;2023-08-12T10:42:40;5.35;;;2.58;;
39738;SDS011;25422;48.286;8.484;2023-08-12T10:45:18;3.92;;;2.17;;
39738;SDS011;25422;48.286;8.484;2023-08-12T10:50:48;6.57;;;2.63;;
39738;SDS011;25422;48.286;8.484;2023-08-12T10:53:24;6.32;;;2.63;;
39738;SDS011;25422;48.286;8.484;2023-08-12T10:55:58;4.25;;;2.17;;
39738;SDS011;25422;48.286;8.484;2023-08-12T10:58:34;4.05;;;2.40;;
39738;SDS011;25422;48.286;8.484;2023-08-12T11:01:00;5.47;;;2.95;;
39738;SDS011;25422;48.286;8.484;2023-08-12T11:03:30;8.25;;;2.60;;
39738;SDS011;25422;48.286;8.484;2023-08-12T11:05:57;6.22;;;2.67;;
39738;SDS011;25422;48.286;8.484;2023-08-12T11:08:26;6.10;;;2.55;;
39738;SDS011;25422;48.286;8.484;2023-08-12T11:10:53;3.50;;;2.60;;
39738;SDS011;25422;48.286;8.484;2023-08-12T11:13:21;5.70;;;2.53;;
39738;SDS011;25422;48.286;8.484;2023-08-12T11:15:47;4.60;;;2.90;;
39738;SDS011;25422;48.286;8.484;2023-08-12T11:18:14;5.10;;;2.60;;
39738;SDS011;25422;48.286;8.484;2023-08-12T11:20:45;4.32;;;2.70;;
39738;SDS011;25422;48.286;8.484;2023-08-12T11:25:39;5.85;;;2.55;;
39738;SDS011;25422;48.286;8.484;2023-08-12T11:28:06;4.65;;;2.42;;
39738;SDS011;25422;48.286;8.484;2023-08-12T11:30:32;5.32;;;2.45;;
39738;SDS011;25422;48.286;8.484;2023-08-12T11:32:58;4.80;;;2.70;;
39738;SDS011;25422;48.286;8.484;2023-08-12T11:35:26;7.03;;;3.13;;
39738;SDS011;25422;48.286;8.484;2023-08-12T11:37:52;5.05;;;2.90;;
39738;SDS011;25422;48.286;8.484;2023-08-12T11:40:21;5.30;;;2.95;;
39738;SDS011;25422;48.286;8.484;2023-08-12T11:42:47;3.45;;;2.47;;
39738;SDS011;25422;48.286;8.484;2023-08-12T11:45:15;3.90;;;2.70;;
39738;SDS011;25422;48.286;8.484;2023-08-12T11:47:42;9.15;;;3.92;;
39738;SDS011;25422;48.286;8.484;2023-08-12T11:50:09;14.32;;;4.40;;
39738;SDS011;25422;48.286;8.484;2023-08-12T11:52:36;12.43;;;5.38;;
39738;SDS011;25422;48.286;8.484;2023-08-12T11:55:02;16.30;;;5.57;;
39738;SDS011;25422;48.286;8.484;2023-08-12T11:57:28;12.18;;;4.47;;
39738;SDS011;25422;48.286;8.484;2023-08-12T11:59:58;17.48;;;5.55;;
39738;SDS011;25422;48.286;8.484;2023-08-12T12:02:24;12.88;;;5.25;;
39738;SDS011;25422;48.286;8.484;2023-08-12T12:04:51;11.45;;;5.75;;
39738;SDS011;25422;48.286;8.484;2023-08-12T12:07:24;7.88;;;4.40;;
39738;SDS011;25422;48.286;8.484;2023-08-12T12:09:51;6.85;;;4.18;;
39738;SDS011;25422;48.286;8.484;2023-08-12T12:12:21;8.10;;;4.70;;
39738;SDS011;25422;48.286;8.484;2023-08-12T12:14:48;8.90;;;4.65;;
39738;SDS011;25422;48.286;8.484;2023-08-12T12:17:14;13.52;;;5.78;;
39738;SDS011;25422;48.286;8.484;2023-08-12T12:19:40;11.70;;;5.95;;
39738;SDS011;25422;48.286;8.484;2023-08-12T12:22:06;12.32;;;5.45;;
39738;SDS011;25422;48.286;8.484;2023-08-12T12:24:32;10.88;;;5.95;;
39738;SDS011;25422;48.286;8.484;2023-08-12T12:27:10;9.77;;;6.22;;
39738;SDS011;25422;48.286;8.484;2023-08-12T12:29:36;10.35;;;6.03;;
39738;SDS011;25422;48.286;8.484;2023-08-12T12:32:01;12.15;;;6.78;;
39738;SDS011;25422;48.286;8.484;2023-08-12T12:34:27;12.30;;;6.50;;
39738;SDS011;25422;48.286;8.484;2023-08-12T12:36:52;12.82;;;6.35;;
39738;SDS011;25422;48.286;8.484;2023-08-12T12:39:18;15.13;;;6.45;;
39738;SDS011;25422;48.286;8.484;2023-08-12T12:41:43;12.10;;;5.70;;
39738;SDS011;25422;48.286;8.484;2023-08-12T12:44:08;8.43;;;4.78;;
39738;SDS011;25422;48.286;8.484;2023-08-12T12:46:34;10.07;;;3.72;;
39738;SDS011;25422;48.286;8.484;2023-08-12T12:49:00;16.50;;;4.13;;
39738;SDS011;25422;48.286;8.484;2023-08-12T12:51:25;9.25;;;3.75;;
39738;SDS011;25422;48.286;8.484;2023-08-12T12:53:51;5.05;;;3.45;;
39738;SDS011;25422;48.286;8.484;2023-08-12T12:56:16;5.53;;;3.10;;
39738;SDS011;25422;48.286;8.484;2023-08-12T12:58:41;6.53;;;3.40;;
39738;SDS011;25422;48.286;8.484;2023-08-12T13:01:07;6.65;;;3.03;;
39738;SDS011;25422;48.286;8.484;2023-08-12T13:03:32;7.18;;;4.03;;
39738;SDS011;25422;48.286;8.484;2023-08-12T13:05:58;8.25;;;4.03;;
39738;SDS011;25422;48.286;8.484;2023-08-12T13:08:24;7.00;;;3.85;;
39738;SDS011;25422;48.286;8.484;2023-08-12T13:10:50;6.95;;;3.50;;
39738;SDS011;25422;48.286;8.484;2023-08-12T13:13:16;7.90;;;3.30;;
39738;SDS011;25422;48.286;8.484;2023-08-12T13:15:42;6.80;;;3.20;;
39738;SDS011;25422;48.286;8.484;2023-08-12T13:18:07;7.72;;;3.08;;
39738;SDS011;25422;48.286;8.484;2023-08-12T13:20:33;5.80;;;3.25;;
39738;SDS011;25422;48.286;8.484;2023-08-12T13:22:59;6.05;;;2.70;;
39738;SDS011;25422;48.286;8.484;2023-08-12T13:25:25;6.38;;;3.40;;
39738;SDS011;25422;48.286;8.484;2023-08-12T13:27:53;6.63;;;3.03;;
39738;SDS011;25422;48.286;8.484;2023-08-12T13:30:18;4.53;;;3.15;;
39738;SDS011;25422;48.286;8.484;2023-08-12T13:32:44;6.38;;;2.85;;
39738;SDS011;25422;48.286;8.484;2023-08-12T13:35:09;6.15;;;2.90;;
39738;SDS011;25422;48.286;8.484;2023-08-12T13:37:36;6.97;;;2.90;;
39738;SDS011;25422;48.286;8.484;2023-08-12T13:40:01;4.50;;;3.25;;
39738;SDS011;25422;48.286;8.484;2023-08-12T13:42:27;5.57;;;2.90;;
39738;SDS011;25422;48.286;8.484;2023-08-12T13:44:52;6.53;;;3.50;;
39738;SDS011;25422;48.286;8.484;2023-08-12T13:47:18;5.38;;;3.08;;
39738;SDS011;25422;48.286;8.484;2023-08-12T13:49:43;6.38;;;3.72;;
39738;SDS011;25422;48.286;8.484;2023-08-12T13:52:08;7.60;;;3.40;;
39738;SDS011;25422;48.286;8.484;2023-08-12T13:54:34;5.93;;;3.55;;
39738;SDS011;25422;48.286;8.484;2023-08-12T13:56:59;6.28;;;3.33;;
39738;SDS011;25422;48.286;8.484;2023-08-12T13:59:25;6.50;;;5.22;;
39738;SDS011;25422;48.286;8.484;2023-08-12T14:01:50;7.75;;;3.90;;
39738;SDS011;25422;48.286;8.484;2023-08-12T14:04:15;6.28;;;3.45;;
39738;SDS011;25422;48.286;8.484;2023-08-12T14:06:41;4.97;;;3.30;;
39738;SDS011;25422;48.286;8.484;2023-08-12T14:09:06;5.68;;;3.10;;
39738;SDS011;25422;48.286;8.484;2023-08-12T14:11:33;6.07;;;4.75;;
39738;SDS011;25422;48.286;8.484;2023-08-12T14:13:58;9.05;;;6.95;;
39738;SDS011;25422;48.286;8.484;2023-08-12T14:16:24;8.40;;;5.18;;
39738;SDS011;25422;48.286;8.484;2023-08-12T14:18:50;8.07;;;5.20;;
39738;SDS011;25422;48.286;8.484;2023-08-12T14:21:16;8.57;;;4.70;;
39738;SDS011;25422;48.286;8.484;2023-08-12T14:23:41;11.00;;;8.07;;
39738;SDS011;25422;48.286;8.484;2023-08-12T14:26:06;44.22;;;30.45;;
39738;SDS011;25422;48.286;8.484;2023-08-12T14:28:32;24.30;;;15.43;;
39738;SDS011;25422;48.286;8.484;2023-08-12T14:30:57;21.52;;;13.77;;
39738;SDS011;25422;48.286;8.484;2023-08-12T14:33:23;5.28;;;3.20;;
39738;SDS011;25422;48.286;8.484;2023-08-12T14:35:50;5.00;;;3.17;;
39738;SDS011;25422;48.286;8.484;2023-08-12T14:38:16;5.60;;;3.00;;
39738;SDS011;25422;48.286;8.484;2023-08-12T14:40:42;5.88;;;2.83;;
39738;SDS011;25422;48.286;8.484;2023-08-12T14:43:11;8.02;;;3.13;;
39738;SDS011;25422;48.286;8.484;2023-08-12T14:45:36;5.47;;;2.90;;